Time;durP1;ratioP1;P1;durP2;ratioP2;P2;SDS_P1;SDS_P2;PMS_P1;PMS_P2;Temp;Humidity;BMP_temperature;BMP_pressure;BME280_temperature;BME280_humidity;BME280_pressure;Samples;Min_cycle;Max_cycle;Signal;HPM_P1;HPM_P2
2023/07/26 00:02:17;;;;;;;1.02;0.47;;;13.20;99.90;;;;;;5057240;28;20048;-65
2023/07/26 00:04:43;;;;;;;1.65;0.85;;;13.10;99.90;;;;;;5002938;28;20050;-65
2023/07/26 00:07:09;;;;;;;3.85;0.80;;;13.10;99.90;;;;;;5057854;28;20048;-65
2023/07/26 00:09:34;;;;;;;2.30;0.80;;;13.10;99.90;;;;;;5051611;28;20097;-65
2023/07/26 00:12:00;;;;;;;1.88;0.70;;;13.20;99.90;;;;;;5071498;28;20538;-65
2023/07/26 00:14:26;;;;;;;4.20;0.80;;;13.20;99.90;;;;;;5071598;28;20143;-65
2023/07/26 00:16:52;;;;;;;1.42;0.70;;;13.20;99.90;;;;;;5070491;28;20044;-65
2023/07/26 00:19:19;;;;;;;2.50;0.82;;;13.20;99.90;;;;;;5059684;28;20150;-65
2023/07/26 00:21:46;;;;;;;3.20;0.80;;;13.20;99.90;;;;;;5052208;28;20090;-65
2023/07/26 00:24:12;;;;;;;5.20;0.88;;;13.20;99.90;;;;;;5053576;28;20056;-65
2023/07/26 00:26:37;;;;;;;2.67;1.00;;;13.30;99.90;;;;;;5068704;28;20062;-64
2023/07/26 00:29:03;;;;;;;3.95;0.77;;;13.20;99.90;;;;;;5071346;28;20562;-65
2023/07/26 00:31:29;;;;;;;1.75;1.00;;;13.20;99.90;;;;;;5052262;28;20055;-65
2023/07/26 00:33:55;;;;;;;5.25;1.05;;;13.30;99.90;;;;;;5070945;28;20036;-65
2023/07/26 00:36:21;;;;;;;1.20;0.93;;;13.30;99.90;;;;;;5057056;28;20053;-66
2023/07/26 00:38:47;;;;;;;3.00;0.88;;;13.30;99.90;;;;;;5056180;28;20037;-65
2023/07/26 00:41:13;;;;;;;4.90;1.15;;;13.20;99.90;;;;;;5052929;28;20129;-65
2023/07/26 00:43:39;;;;;;;3.80;0.93;;;13.30;99.90;;;;;;5069673;28;20116;-64
2023/07/26 00:46:06;;;;;;;5.18;1.10;;;13.30;99.90;;;;;;5071022;28;20416;-65
2023/07/26 00:48:34;;;;;;;2.45;0.95;;;13.20;99.90;;;;;;5070105;28;20115;-64
2023/07/26 00:51:01;;;;;;;3.20;1.20;;;13.30;99.90;;;;;;5052775;28;20086;-65
2023/07/26 00:53:27;;;;;;;4.30;1.30;;;13.30;99.90;;;;;;5070992;28;20382;-65
2023/07/26 00:55:54;;;;;;;1.25;1.08;;;13.30;99.90;;;;;;5069411;28;20082;-65
2023/07/26 00:58:21;;;;;;;3.03;1.20;;;13.30;99.90;;;;;;5062004;28;20037;-64
2023/07/26 01:00:47;;;;;;;3.95;0.70;;;13.40;99.90;;;;;;5044822;28;20060;-65
2023/07/26 01:03:14;;;;;;;4.05;1.15;;;13.40;99.90;;;;;;5041474;28;20052;-65
2023/07/26 01:05:49;;;;;;;2.80;0.95;;;13.30;99.90;;;;;;5040038;28;20109;-65
2023/07/26 01:08:42;;;;;;;3.20;1.50;;;13.30;99.90;;;;;;5064258;28;20080;-65
2023/07/26 01:11:23;;;;;;;5.28;1.08;;;13.30;99.90;;;;;;5038315;28;20048;-64
2023/07/26 01:14:11;;;;;;;1.60;1.05;;;13.40;99.90;;;;;;5069162;28;20053;-64
2023/07/26 01:16:38;;;;;;;3.47;1.23;;;13.30;99.90;;;;;;5052038;28;20044;-64
2023/07/26 01:19:04;;;;;;;1.85;1.05;;;13.30;99.90;;;;;;5069155;28;20391;-64
2023/07/26 01:21:31;;;;;;;5.13;1.00;;;13.30;99.90;;;;;;5031815;28;20091;-65
2023/07/26 01:23:57;;;;;;;2.90;1.30;;;13.30;99.90;;;;;;5046227;28;20048;-65
2023/07/26 01:26:22;;;;;;;3.30;1.10;;;13.30;99.90;;;;;;5069197;28;20044;-65
2023/07/26 01:28:48;;;;;;;2.13;1.08;;;13.20;99.90;;;;;;5052043;28;20363;-65
2023/07/26 01:31:16;;;;;;;1.38;1.00;;;13.20;99.90;;;;;;5034237;28;20387;-65
2023/07/26 01:33:44;;;;;;;2.38;0.93;;;13.20;99.90;;;;;;5069340;28;20040;-65
2023/07/26 01:36:10;;;;;;;1.85;1.10;;;13.20;99.90;;;;;;5069233;28;20201;-64
2023/07/26 01:38:37;;;;;;;3.15;1.00;;;13.20;99.90;;;;;;5062171;28;20037;-65
2023/07/26 01:41:04;;;;;;;0.98;0.90;;;13.20;99.90;;;;;;5067400;28;20045;-64
2023/07/26 01:43:31;;;;;;;2.22;1.02;;;13.20;99.90;;;;;;5067258;28;20044;-65
2023/07/26 01:45:57;;;;;;;2.78;1.00;;;13.20;99.90;;;;;;5064931;28;20048;-65
2023/07/26 01:48:22;;;;;;;1.17;0.77;;;13.20;99.90;;;;;;5065467;28;20044;-65
2023/07/26 01:50:48;;;;;;;4.38;0.90;;;13.10;99.90;;;;;;5050407;28;20080;-64
2023/07/26 01:53:14;;;;;;;4.70;1.10;;;13.10;99.90;;;;;;5048156;28;20050;-65
2023/07/26 01:55:40;;;;;;;4.10;1.10;;;13.10;99.90;;;;;;5058327;28;20457;-65
2023/07/26 01:58:05;;;;;;;2.67;1.20;;;13.10;99.90;;;;;;5034349;28;20045;-66
2023/07/26 02:00:31;;;;;;;3.53;1.15;;;13.10;99.90;;;;;;5068893;28;20047;-65
2023/07/26 02:02:57;;;;;;;5.15;1.17;;;13.00;99.90;;;;;;5050725;28;20048;-65
2023/07/26 02:05:24;;;;;;;5.45;1.20;;;13.00;99.90;;;;;;5050142;28;20074;-65
2023/07/26 02:07:50;;;;;;;3.95;1.20;;;13.00;99.90;;;;;;5069244;28;20036;-65
2023/07/26 02:10:15;;;;;;;3.92;1.48;;;13.00;99.90;;;;;;5056101;28;20045;-66
2023/07/26 02:12:41;;;;;;;7.03;1.63;;;13.00;99.90;;;;;;5049668;28;20090;-66
2023/07/26 02:15:07;;;;;;;7.55;0.90;;;12.90;99.90;;;;;;5068925;28;20075;-65
2023/07/26 02:17:33;;;;;;;4.97;1.42;;;12.90;99.90;;;;;;5067503;28;20055;-65
2023/07/26 02:19:59;;;;;;;2.85;1.20;;;12.90;99.90;;;;;;5069017;28;20498;-65
2023/07/26 02:22:25;;;;;;;1.73;1.00;;;12.90;99.90;;;;;;5068097;28;20078;-65
2023/07/26 02:24:50;;;;;;;4.60;1.30;;;12.90;99.90;;;;;;5069276;28;20332;-65
2023/07/26 02:27:17;;;;;;;3.05;1.10;;;12.90;99.90;;;;;;5033504;28;20517;-65
2023/07/26 02:29:42;;;;;;;2.95;1.08;;;12.80;99.90;;;;;;5069108;28;20429;-65
2023/07/26 02:32:08;;;;;;;3.55;1.00;;;12.80;99.90;;;;;;5068711;28;20040;-65
2023/07/26 02:34:35;;;;;;;1.58;1.02;;;12.80;99.90;;;;;;5050431;28;20048;-65
2023/07/26 02:37:01;;;;;;;2.80;0.88;;;12.80;99.90;;;;;;5067883;28;20140;-64
2023/07/26 02:39:26;;;;;;;2.03;1.08;;;12.70;99.90;;;;;;5067793;28;20403;-65
2023/07/26 02:41:52;;;;;;;2.22;1.00;;;12.70;99.90;;;;;;5068855;28;20032;-65
2023/07/26 02:44:18;;;;;;;2.15;1.00;;;12.70;99.90;;;;;;5067922;28;20044;-65
2023/07/26 02:46:43;;;;;;;2.80;1.15;;;12.70;99.90;;;;;;5068281;28;20406;-65
2023/07/26 02:49:09;;;;;;;3.60;1.13;;;12.60;99.90;;;;;;5067183;28;20124;-64
2023/07/26 02:51:35;;;;;;;4.55;1.30;;;12.60;99.90;;;;;;5068613;28;20503;-65
2023/07/26 02:54:01;;;;;;;3.03;1.00;;;12.60;99.90;;;;;;5068046;28;20049;-65
2023/07/26 02:56:26;;;;;;;1.88;1.05;;;12.60;99.90;;;;;;5049997;28;20083;-65
2023/07/26 02:58:52;;;;;;;1.92;0.90;;;12.60;99.90;;;;;;5050267;28;20044;-64
2023/07/26 03:01:18;;;;;;;4.22;1.20;;;12.50;99.90;;;;;;5033193;28;20059;-65
2023/07/26 03:03:44;;;;;;;0.70;0.70;;;12.50;99.90;;;;;;5068190;28;20411;-65
2023/07/26 03:06:11;;;;;;;1.45;1.00;;;12.50;99.90;;;;;;5050001;28;20052;-65
2023/07/26 03:08:37;;;;;;;0.95;0.95;;;12.40;99.90;;;;;;5068426;28;20037;-65
2023/07/26 03:11:02;;;;;;;6.70;1.17;;;12.40;99.90;;;;;;5027126;28;20048;-65
2023/07/26 03:13:28;;;;;;;3.58;1.30;;;12.30;99.90;;;;;;5068295;28;20075;-64
2023/07/26 03:15:54;;;;;;;3.80;1.13;;;12.30;99.90;;;;;;5049991;28;20044;-65
2023/07/26 03:18:20;;;;;;;3.35;1.30;;;12.40;99.90;;;;;;5068108;28;20098;-65
2023/07/26 03:20:49;;;;;;;1.65;1.00;;;12.30;99.90;;;;;;5067544;28;20040;-64
2023/07/26 03:23:14;;;;;;;2.30;1.17;;;12.30;99.90;;;;;;5067836;28;20044;-65
2023/07/26 03:25:42;;;;;;;2.45;0.95;;;12.30;99.90;;;;;;5068584;28;20468;-64
2023/07/26 03:28:08;;;;;;;2.95;1.15;;;12.30;99.90;;;;;;5066080;28;20056;-65
2023/07/26 03:30:34;;;;;;;4.18;1.30;;;12.30;99.90;;;;;;5050468;28;20106;-64
2023/07/26 03:32:59;;;;;;;2.55;1.20;;;12.20;99.90;;;;;;5067522;28;20058;-64
2023/07/26 03:35:25;;;;;;;1.85;1.05;;;12.20;99.90;;;;;;5067477;28;20516;-64
2023/07/26 03:37:51;;;;;;;4.43;1.48;;;12.20;99.90;;;;;;5030794;28;20071;-64
2023/07/26 03:40:17;;;;;;;5.78;1.33;;;12.20;99.90;;;;;;5066603;28;20417;-64
2023/07/26 03:42:42;;;;;;;2.60;1.25;;;12.20;99.90;;;;;;5066201;28;20121;-65
2023/07/26 03:45:08;;;;;;;4.53;1.25;;;12.20;99.90;;;;;;5066003;28;20084;-64
2023/07/26 03:47:34;;;;;;;1.52;1.00;;;12.20;99.90;;;;;;5065798;28;20041;-64
2023/07/26 03:50:00;;;;;;;3.10;1.23;;;12.20;99.90;;;;;;5047182;28;20063;-64
2023/07/26 03:52:26;;;;;;;2.00;1.17;;;12.20;99.90;;;;;;5048669;28;20056;-64
2023/07/26 03:54:53;;;;;;;7.32;1.45;;;12.20;99.90;;;;;;5066034;28;20037;-65
2023/07/26 03:57:18;;;;;;;5.28;1.23;;;12.20;99.90;;;;;;5048158;28;20472;-65
2023/07/26 03:59:44;;;;;;;3.42;1.30;;;12.20;99.90;;;;;;5066225;28;20366;-64
2023/07/26 04:02:10;;;;;;;2.22;1.30;;;12.20;99.90;;;;;;5065454;28;20045;-64
2023/07/26 04:04:36;;;;;;;5.10;1.48;;;12.20;99.90;;;;;;5048447;28;20044;-65
2023/07/26 04:07:03;;;;;;;5.82;1.65;;;12.30;99.90;;;;;;5065666;28;20098;-64
2023/07/26 04:09:28;;;;;;;3.28;1.58;;;12.30;99.90;;;;;;5060215;28;20037;-65
2023/07/26 04:11:58;;;;;;;2.13;1.38;;;12.30;99.90;;;;;;5057672;28;20060;-65
2023/07/26 04:14:23;;;;;;;3.58;1.30;;;12.30;99.90;;;;;;5048870;28;20041;-64
2023/07/26 04:16:50;;;;;;;2.17;1.33;;;12.30;99.90;;;;;;5048459;28;20052;-64
2023/07/26 04:19:16;;;;;;;2.10;1.33;;;12.30;99.90;;;;;;5065101;28;20115;-64
2023/07/26 04:21:42;;;;;;;7.60;1.27;;;12.40;99.90;;;;;;5065728;28;20456;-65
2023/07/26 04:24:08;;;;;;;2.28;1.27;;;12.40;99.90;;;;;;5065462;28;20086;-65
2023/07/26 04:26:34;;;;;;;3.85;1.55;;;12.40;99.90;;;;;;5048143;28;20041;-65
2023/07/26 04:28:59;;;;;;;5.90;1.77;;;12.50;99.90;;;;;;5065493;28;20044;-65
2023/07/26 04:31:25;;;;;;;3.17;1.13;;;12.40;99.90;;;;;;5048135;28;20436;-65
2023/07/26 04:33:51;;;;;;;2.85;1.40;;;12.50;99.90;;;;;;5066070;28;20049;-65
2023/07/26 04:36:17;;;;;;;2.00;1.05;;;12.50;99.90;;;;;;5064854;28;20557;-65
2023/07/26 04:38:42;;;;;;;3.58;1.40;;;12.50;99.90;;;;;;5066166;28;20132;-65
2023/07/26 04:41:08;;;;;;;3.00;1.10;;;12.50;99.90;;;;;;5068554;28;20040;-65
2023/07/26 04:43:34;;;;;;;8.93;1.25;;;12.50;99.90;;;;;;5069396;28;20037;-65
2023/07/26 04:46:00;;;;;;;5.97;1.33;;;12.50;99.90;;;;;;5068837;28;20159;-65
2023/07/26 04:48:26;;;;;;;2.28;1.13;;;12.50;99.90;;;;;;5069368;28;21124;-65
2023/07/26 04:50:51;;;;;;;2.33;1.17;;;12.50;99.90;;;;;;5068680;28;20131;-65
2023/07/26 04:53:17;;;;;;;2.05;1.17;;;12.50;99.90;;;;;;5068751;28;20119;-65
2023/07/26 04:55:48;;;;;;;1.73;1.00;;;12.60;99.90;;;;;;5035057;28;20028;-65
2023/07/26 04:58:14;;;;;;;3.85;1.20;;;12.60;99.90;;;;;;5050871;28;20052;-64
2023/07/26 05:00:41;;;;;;;1.52;1.30;;;12.70;99.90;;;;;;5050454;28;20044;-65
2023/07/26 05:03:07;;;;;;;1.88;1.08;;;12.70;99.90;;;;;;5068032;28;20139;-65
2023/07/26 05:05:34;;;;;;;3.67;1.60;;;12.80;99.90;;;;;;5034119;28;20444;-65
2023/07/26 05:08:00;;;;;;;4.20;1.60;;;12.90;99.90;;;;;;5068900;28;20052;-65
2023/07/26 05:10:26;;;;;;;4.68;1.30;;;12.90;99.90;;;;;;5055402;28;20521;-65
2023/07/26 05:12:52;;;;;;;2.20;1.70;;;12.90;99.90;;;;;;5068299;28;20051;-65
2023/07/26 05:15:18;;;;;;;3.80;1.35;;;12.90;99.90;;;;;;5050802;28;20051;-65
2023/07/26 05:17:44;;;;;;;1.50;1.40;;;12.80;99.90;;;;;;5068615;28;20040;-65
2023/07/26 05:20:11;;;;;;;2.25;1.30;;;12.80;99.90;;;;;;5050269;28;20130;-65
2023/07/26 05:22:37;;;;;;;4.43;1.48;;;12.80;99.90;;;;;;5068133;28;20047;-65
2023/07/26 05:25:03;;;;;;;2.35;1.40;;;12.80;99.90;;;;;;5050152;28;20044;-65
2023/07/26 05:27:28;;;;;;;2.22;1.30;;;12.80;99.90;;;;;;5069359;28;20045;-65
2023/07/26 05:29:57;;;;;;;4.57;1.80;;;12.80;99.90;;;;;;5050462;28;20036;-64
2023/07/26 05:32:26;;;;;;;2.40;1.48;;;12.80;99.90;;;;;;5034078;28;20037;-65
2023/07/26 05:34:56;;;;;;;6.83;1.80;;;12.90;99.90;;;;;;5050215;28;20036;-65
2023/07/26 05:37:23;;;;;;;1.38;1.30;;;12.80;99.90;;;;;;5067801;28;20291;-65
2023/07/26 05:39:49;;;;;;;2.88;1.25;;;12.80;99.90;;;;;;5050025;28;20033;-65
2023/07/26 05:42:15;;;;;;;5.03;1.70;;;12.90;99.90;;;;;;5049936;28;20044;-65
2023/07/26 05:44:41;;;;;;;5.10;1.90;;;12.80;99.90;;;;;;5068301;28;20482;-65
2023/07/26 05:47:06;;;;;;;3.85;1.52;;;12.80;99.90;;;;;;5049786;28;20063;-65
2023/07/26 05:49:32;;;;;;;2.85;1.60;;;12.80;99.90;;;;;;5068278;28;20048;-65
2023/07/26 05:51:59;;;;;;;2.92;1.67;;;12.90;99.90;;;;;;5066827;28;20455;-65
2023/07/26 05:54:25;;;;;;;3.05;1.50;;;13.00;99.90;;;;;;5048212;28;20071;-65
2023/07/26 05:56:51;;;;;;;4.85;1.60;;;13.00;99.90;;;;;;5068074;28;20064;-65
2023/07/26 05:59:17;;;;;;;6.80;1.60;;;13.10;99.90;;;;;;5060013;28;20048;-65
2023/07/26 06:01:42;;;;;;;5.78;1.52;;;13.20;99.90;;;;;;5056755;28;20037;-65
2023/07/26 06:04:08;;;;;;;1.95;1.38;;;13.30;99.90;;;;;;5060669;28;20098;-65
2023/07/26 06:06:34;;;;;;;4.00;1.80;;;13.40;99.90;;;;;;5032755;28;20158;-66
2023/07/26 06:09:00;;;;;;;3.30;1.80;;;13.50;99.90;;;;;;5027755;28;20045;-65
2023/07/26 06:11:26;;;;;;;7.60;1.92;;;13.60;99.90;;;;;;5055080;28;20048;-65
2023/07/26 06:13:53;;;;;;;3.53;1.60;;;13.70;99.90;;;;;;5063967;28;20050;-66
2023/07/26 06:16:19;;;;;;;2.80;1.30;;;13.80;99.90;;;;;;5043481;28;20025;-65
2023/07/26 06:18:45;;;;;;;3.10;1.50;;;13.80;99.90;;;;;;5039341;28;20036;-65
2023/07/26 06:21:11;;;;;;;3.65;1.40;;;13.90;99.90;;;;;;5009985;28;20410;-64
2023/07/26 06:23:38;;;;;;;7.68;1.75;;;14.10;99.90;;;;;;5030602;28;20505;-64
2023/07/26 06:26:04;;;;;;;2.10;1.27;;;14.10;99.90;;;;;;5067539;28;20040;-64
2023/07/26 06:28:29;;;;;;;1.65;1.52;;;14.20;99.90;;;;;;5049029;28;20490;-64
2023/07/26 06:30:56;;;;;;;5.30;1.45;;;14.30;99.90;;;;;;5061792;28;20426;-65
2023/07/26 06:33:22;;;;;;;4.57;1.60;;;14.40;99.90;;;;;;5066724;28;20044;-65
2023/07/26 06:35:48;;;;;;;4.28;1.30;;;14.50;99.90;;;;;;5041766;28;20067;-66
2023/07/26 06:38:13;;;;;;;6.72;1.52;;;14.60;99.90;;;;;;5059486;28;20048;-65
2023/07/26 06:40:39;;;;;;;3.30;1.40;;;14.80;99.90;;;;;;5055063;28;20041;-66
2023/07/26 06:43:06;;;;;;;1.42;1.23;;;14.80;99.90;;;;;;5015600;28;20159;-66
2023/07/26 06:45:32;;;;;;;2.17;1.45;;;14.90;99.90;;;;;;5060314;28;20071;-66
2023/07/26 06:47:58;;;;;;;1.80;1.13;;;15.00;99.90;;;;;;5054332;28;20385;-66
2023/07/26 06:50:24;;;;;;;5.85;1.40;;;14.90;99.90;;;;;;5039659;28;20045;-67
2023/07/26 06:52:50;;;;;;;1.75;1.30;;;14.80;99.90;;;;;;5036736;28;20048;-67
2023/07/26 06:55:15;;;;;;;5.82;1.52;;;14.70;99.90;;;;;;5059309;28;20090;-67
2023/07/26 06:57:41;;;;;;;2.88;1.10;;;14.60;99.90;;;;;;5038881;28;20072;-67
2023/07/26 07:00:12;;;;;;;2.25;1.60;;;14.50;99.90;;;;;;5055672;28;20040;-67
2023/07/26 07:02:39;;;;;;;5.85;1.48;;;14.40;99.90;;;;;;5046191;28;20084;-67
2023/07/26 07:05:06;;;;;;;4.95;1.50;;;14.40;99.90;;;;;;5048037;28;20153;-69
2023/07/26 07:07:31;;;;;;;1.95;1.23;;;14.30;99.90;;;;;;5035217;28;20128;-69
2023/07/26 07:09:57;;;;;;;1.75;1.13;;;14.30;99.90;;;;;;5010268;28;20148;-70
2023/07/26 07:12:23;;;;;;;2.20;1.10;;;14.30;99.90;;;;;;5044286;28;20055;-70
2023/07/26 07:14:49;;;;;;;2.50;1.52;;;14.30;99.90;;;;;;5038537;28;20506;-70
2023/07/26 07:17:14;;;;;;;5.68;1.50;;;14.30;99.90;;;;;;5036187;28;20036;-70
2023/07/26 07:19:40;;;;;;;4.05;1.42;;;14.30;99.90;;;;;;5045728;28;20089;-71
2023/07/26 07:22:06;;;;;;;4.38;1.55;;;14.40;99.90;;;;;;5041227;28;20049;-70
2023/07/26 07:24:34;;;;;;;5.95;1.42;;;14.60;99.90;;;;;;5009769;28;20417;-70
2023/07/26 07:27:00;;;;;;;2.63;1.40;;;14.80;99.90;;;;;;5012663;28;20045;-70
2023/07/26 07:29:25;;;;;;;4.07;1.50;;;15.10;99.90;;;;;;5030594;28;20141;-70
2023/07/26 07:31:51;;;;;;;1.73;1.40;;;15.40;99.90;;;;;;5024870;28;20496;-70
2023/07/26 07:34:17;;;;;;;3.33;1.40;;;15.60;99.90;;;;;;5020717;28;20041;-70
2023/07/26 07:36:43;;;;;;;2.10;1.73;;;16.00;99.90;;;;;;5025810;28;20436;-70
2023/07/26 07:39:09;;;;;;;3.28;1.60;;;16.30;99.90;;;;;;5010496;28;20058;-70
2023/07/26 07:41:37;;;;;;;4.55;1.90;;;16.50;99.90;;;;;;5010266;28;20048;-70
2023/07/26 07:44:03;;;;;;;2.60;1.58;;;16.80;99.90;;;;;;5032767;28;20037;-70
2023/07/26 07:46:29;;;;;;;1.70;1.60;;;17.10;99.90;;;;;;5025463;28;20053;-71
2023/07/26 07:48:56;;;;;;;2.10;1.63;;;17.50;99.90;;;;;;5031463;28;20060;-70
2023/07/26 07:51:27;;;;;;;3.22;1.60;;;17.80;99.90;;;;;;5042016;28;20132;-70
2023/07/26 07:53:53;;;;;;;1.52;1.30;;;18.20;99.90;;;;;;5033684;28;20554;-71
2023/07/26 07:56:19;;;;;;;3.15;1.67;;;18.30;99.90;;;;;;5005452;28;20041;-69
2023/07/26 07:58:45;;;;;;;2.50;1.10;;;18.30;99.20;;;;;;5043675;28;20500;-69
2023/07/26 08:01:10;;;;;;;2.63;1.17;;;18.00;92.50;;;;;;5013546;28;20518;-69
2023/07/26 08:03:36;;;;;;;1.67;1.30;;;18.10;91.90;;;;;;5039304;28;20129;-69
2023/07/26 08:06:02;;;;;;;2.97;1.30;;;18.30;96.30;;;;;;5015080;28;20080;-69
2023/07/26 08:08:27;;;;;;;0.98;0.98;;;18.30;92.60;;;;;;5023853;28;20589;-68
2023/07/26 08:10:53;;;;;;;1.23;0.80;;;18.40;90.20;;;;;;5021212;28;20067;-68
2023/07/26 08:13:19;;;;;;;1.52;1.00;;;18.60;91.80;;;;;;5018691;28;20132;-69
2023/07/26 08:15:45;;;;;;;1.52;0.95;;;18.90;81.40;;;;;;5010114;28;20182;-68
2023/07/26 08:18:10;;;;;;;0.93;0.82;;;19.10;80.30;;;;;;5032169;28;20071;-67
2023/07/26 08:20:37;;;;;;;1.23;0.80;;;19.00;58.00;;;;;;5015109;28;20503;-68
2023/07/26 08:23:06;;;;;;;1.00;0.90;;;18.80;68.90;;;;;;5031638;28;20175;-68
2023/07/26 08:25:32;;;;;;;2.15;1.20;;;18.70;69.40;;;;;;5031562;28;20115;-68
2023/07/26 08:27:57;;;;;;;1.23;1.10;;;18.90;76.70;;;;;;5049273;28;20044;-68
2023/07/26 08:30:23;;;;;;;2.67;0.90;;;19.00;81.60;;;;;;5048988;28;20438;-67
2023/07/26 08:32:49;;;;;;;1.48;0.90;;;18.90;61.40;;;;;;5001289;28;20060;-68
2023/07/26 08:35:15;;;;;;;3.80;0.85;;;18.80;58.40;;;;;;5046243;28;20780;-68
2023/07/26 08:37:41;;;;;;;1.00;1.00;;;19.00;65.50;;;;;;5059441;28;20494;-68
2023/07/26 08:40:07;;;;;;;1.77;0.95;;;18.90;71.40;;;;;;5068999;28;20529;-67
2023/07/26 08:42:33;;;;;;;1.15;0.75;;;19.00;59.20;;;;;;5050515;28;20569;-67
2023/07/26 08:45:00;;;;;;;1.23;0.50;;;18.90;48.60;;;;;;5051051;28;20033;-67
2023/07/26 08:47:28;;;;;;;0.70;0.70;;;18.80;44.40;;;;;;5069048;28;20169;-67
2023/07/26 08:49:54;;;;;;;0.60;0.60;;;18.70;33.70;;;;;;5068693;28;20418;-67
2023/07/26 08:52:21;;;;;;;0.68;0.65;;;18.70;31.10;;;;;;5051162;28;20052;-67
2023/07/26 08:54:47;;;;;;;4.32;0.60;;;18.70;27.70;;;;;;5068500;28;20041;-67
2023/07/26 08:57:16;;;;;;;0.70;0.45;;;18.60;25.50;;;;;;5034495;28;20055;-68
2023/07/26 08:59:42;;;;;;;2.42;0.70;;;18.40;19.80;;;;;;5050807;28;20044;-67
2023/07/26 09:02:10;;;;;;;0.50;0.47;;;18.40;40.10;;;;;;5043118;28;20388;-67
2023/07/26 09:04:36;;;;;;;0.90;0.77;;;18.40;32.20;;;;;;5051058;28;20123;-67
2023/07/26 09:07:06;;;;;;;2.42;0.80;;;18.40;35.30;;;;;;5034095;28;20048;-67
2023/07/26 09:09:33;;;;;;;0.80;0.80;;;18.60;54.70;;;;;;5063573;28;20025;-67
2023/07/26 09:12:00;;;;;;;0.70;0.70;;;18.70;37.50;;;;;;5050269;28;20087;-67
2023/07/26 09:14:31;;;;;;;0.82;0.60;;;18.50;26.20;;;;;;5050588;28;20476;-66
2023/07/26 09:16:58;;;;;;;1.17;0.82;;;18.40;18.90;;;;;;5068728;28;20048;-66
2023/07/26 09:19:29;;;;;;;0.75;0.70;;;18.30;27.00;;;;;;5068415;28;20032;-67
2023/07/26 09:22:00;;;;;;;0.93;0.77;;;18.30;38.60;;;;;;5050420;28;20360;-66
2023/07/26 09:24:34;;;;;;;1.45;0.65;;;18.30;28.50;;;;;;5068236;28;20506;-66
2023/07/26 09:27:08;;;;;;;2.72;0.80;;;18.30;18.70;;;;;;5033880;28;20041;-66
2023/07/26 09:29:41;;;;;;;0.45;0.45;;;18.50;28.80;;;;;;5033440;28;20079;-67
2023/07/26 09:32:08;;;;;;;1.00;0.50;;;18.60;9.50;;;;;;5067823;28;20525;-66
2023/07/26 09:34:34;;;;;;;0.75;0.70;;;18.70;23.30;;;;;;5049904;28;20045;-67
2023/07/26 09:37:00;;;;;;;0.60;0.60;;;18.90;22.00;;;;;;5042988;28;20071;-67
2023/07/26 09:39:28;;;;;;;1.00;0.90;;;19.10;15.70;;;;;;5062427;28;20045;-67
2023/07/26 09:42:08;;;;;;;1.57;0.80;;;19.20;12.70;;;;;;5049406;28;20082;-67
2023/07/26 09:44:35;;;;;;;0.70;0.70;;;19.40;13.70;;;;;;5049831;28;20124;-67
2023/07/26 09:47:02;;;;;;;1.27;0.88;;;19.50;6.70;;;;;;5068015;28;20052;-66
2023/07/26 09:49:29;;;;;;;1.02;1.00;;;19.70;14.80;;;;;;5068389;28;20409;-66
2023/07/26 09:52:00;;;;;;;0.77;0.77;;;20.10;15.00;;;;;;5067135;28;20509;-66
2023/07/26 09:54:28;;;;;;;0.93;0.80;;;20.20;5.70;;;;;;5032953;28;20060;-66
2023/07/26 09:56:57;;;;;;;1.45;0.85;;;20.20;1.00;;;;;;5066630;28;20336;-66
2023/07/26 09:59:28;;;;;;;1.20;0.98;;;20.10;1.00;;;;;;5067681;28;20379;-66
2023/07/26 10:01:55;;;;;;;0.90;0.82;;;19.70;1.00;;;;;;5066800;28;20131;-66
2023/07/26 10:04:46;;;;;;;0.90;0.90;;;19.10;1.00;;;;;;5068279;28;20044;-66
2023/07/26 10:07:13;;;;;;;2.40;1.20;;;18.70;12.90;;;;;;5067902;28;20055;-66
2023/07/26 10:09:44;;;;;;;1.48;1.02;;;18.70;19.80;;;;;;5060189;28;20051;-66
2023/07/26 10:12:10;;;;;;;1.30;1.00;;;18.80;17.60;;;;;;5061001;28;20524;-66
2023/07/26 10:14:38;;;;;;;1.10;1.00;;;19.00;9.00;;;;;;5049593;28;20419;-65
2023/07/26 10:17:04;;;;;;;1.55;1.08;;;19.00;13.70;;;;;;5056094;28;20036;-66
2023/07/26 10:19:31;;;;;;;0.90;0.90;;;19.00;13.30;;;;;;5048925;28;20064;-66
2023/07/26 10:21:58;;;;;;;1.48;0.80;;;19.10;10.90;;;;;;5033516;28;20522;-66
2023/07/26 10:24:25;;;;;;;2.05;1.10;;;19.30;16.10;;;;;;5029244;28;20041;-66
2023/07/26 10:26:53;;;;;;;1.02;1.00;;;19.30;11.30;;;;;;5054664;28;20082;-66
2023/07/26 10:29:22;;;;;;;1.98;1.20;;;19.10;1.30;;;;;;5036859;28;20036;-66
2023/07/26 10:32:04;;;;;;;1.63;0.90;;;18.80;1.40;;;;;;5053711;28;20514;-67
2023/07/26 10:34:29;;;;;;;3.95;1.08;;;18.90;15.00;;;;;;5057534;28;20136;-66
2023/07/26 10:36:55;;;;;;;1.23;1.10;;;19.10;6.40;;;;;;5050411;28;20135;-65
2023/07/26 10:39:34;;;;;;;3.13;1.20;;;19.50;12.20;;;;;;5046600;28;20045;-66
2023/07/26 10:42:02;;;;;;;1.75;1.17;;;19.80;6.10;;;;;;5053152;28;20533;-66
2023/07/26 10:44:28;;;;;;;3.35;1.00;;;20.10;1.00;;;;;;5025623;28;20032;-65
2023/07/26 10:46:59;;;;;;;3.03;1.40;;;20.30;1.00;;;;;;5050722;28;20045;-66
2023/07/26 10:49:30;;;;;;;1.10;0.82;;;20.40;1.00;;;;;;5051828;28;20032;-65
2023/07/26 10:52:04;;;;;;;2.33;0.95;;;20.30;1.00;;;;;;5059507;28;20048;-65
2023/07/26 10:54:40;;;;;;;1.90;1.20;;;20.30;1.00;;;;;;5060407;28;20048;-66
2023/07/26 10:57:22;;;;;;;3.35;0.70;;;20.10;1.00;;;;;;5066059;28;20490;-65
2023/07/26 11:00:06;;;;;;;0.82;0.60;;;19.70;1.00;;;;;;5059864;28;20048;-66
2023/07/26 11:02:36;;;;;;;5.35;1.00;;;19.00;1.00;;;;;;5039750;28;20047;-67
2023/07/26 11:05:03;;;;;;;2.83;1.00;;;18.40;5.20;;;;;;5030450;28;20464;-67
2023/07/26 11:07:54;;;;;;;2.00;1.05;;;17.50;28.30;;;;;;5027835;28;20375;-68
2023/07/26 11:10:35;;;;;;;1.30;1.20;;;16.60;78.20;;;;;;5033681;28;20104;-69
2023/07/26 11:13:16;;;;;;;1.52;1.13;;;16.00;99.70;;;;;;5060711;28;20433;-69
2023/07/26 11:15:52;;;;;;;2.97;1.02;;;15.60;99.90;;;;;;5065274;28;20048;-69
2023/07/26 11:18:20;;;;;;;1.35;1.13;;;15.40;99.90;;;;;;5048605;28;20044;-69
2023/07/26 11:20:50;;;;;;;2.00;1.30;;;15.20;99.90;;;;;;5062827;28;20040;-68
2023/07/26 11:23:23;;;;;;;2.15;1.23;;;15.10;99.90;;;;;;5031273;28;20060;-69
2023/07/26 11:25:54;;;;;;;3.85;1.52;;;15.20;99.90;;;;;;5045270;28;20049;-69
2023/07/26 11:28:21;;;;;;;3.53;1.70;;;15.10;99.90;;;;;;5047340;28;20067;-69
2023/07/26 11:30:51;;;;;;;3.03;2.17;;;15.20;99.90;;;;;;5065436;28;20089;-70
2023/07/26 11:33:30;;;;;;;1.98;1.30;;;15.30;99.90;;;;;;5047918;28;20049;-69
2023/07/26 11:35:57;;;;;;;3.10;2.30;;;15.30;99.90;;;;;;5047171;28;20375;-70
2023/07/26 11:38:23;;;;;;;3.13;2.00;;;15.40;99.90;;;;;;5047187;28;20054;-70
2023/07/26 11:40:52;;;;;;;2.45;2.22;;;15.60;99.90;;;;;;5014733;28;20048;-70
2023/07/26 11:43:19;;;;;;;1.75;1.27;;;15.60;99.90;;;;;;5047476;28;20041;-70
2023/07/26 11:45:46;;;;;;;3.10;1.63;;;15.60;99.90;;;;;;5048628;28;20045;-70
2023/07/26 11:48:14;;;;;;;2.42;1.55;;;15.60;99.90;;;;;;5031406;28;20135;-70
2023/07/26 11:50:46;;;;;;;2.60;1.50;;;15.60;99.90;;;;;;5051936;28;20071;-69
2023/07/26 11:53:13;;;;;;;1.85;1.38;;;15.50;99.90;;;;;;5070346;28;20048;-70
2023/07/26 11:55:41;;;;;;;1.60;1.10;;;15.40;99.90;;;;;;5051879;28;20043;-70
2023/07/26 11:58:10;;;;;;;3.58;1.08;;;15.40;99.90;;;;;;5039321;28;20132;-70
2023/07/26 12:00:38;;;;;;;1.30;0.85;;;15.50;99.90;;;;;;5042871;28;20048;-70
2023/07/26 12:03:05;;;;;;;1.10;0.55;;;15.60;99.90;;;;;;5034476;28;20088;-71
2023/07/26 12:05:32;;;;;;;0.57;0.57;;;15.60;99.90;;;;;;5033460;28;20056;-71
2023/07/26 12:08:01;;;;;;;0.65;0.65;;;15.80;99.90;;;;;;5034039;28;20044;-70
2023/07/26 12:10:38;;;;;;;0.90;0.90;;;16.00;99.90;;;;;;5038533;28;20126;-70
2023/07/26 12:13:08;;;;;;;1.23;0.90;;;16.10;99.90;;;;;;5051456;28;20109;-70
2023/07/26 12:15:59;;;;;;;0.75;0.73;;;16.30;99.90;;;;;;5048835;28;20143;-69
2023/07/26 12:18:26;;;;;;;1.10;1.10;;;16.40;99.90;;;;;;5041425;28;20051;-70
2023/07/26 12:21:08;;;;;;;3.55;1.10;;;16.60;99.90;;;;;;5051532;28;20402;-69
2023/07/26 12:24:03;;;;;;;3.30;1.35;;;16.80;99.90;;;;;;5051652;28;20102;-70
2023/07/26 12:26:37;;;;;;;1.38;1.20;;;16.90;99.90;;;;;;5051979;28;20398;-70
2023/07/26 12:29:06;;;;;;;1.15;1.13;;;17.00;99.90;;;;;;5069409;28;20051;-70
2023/07/26 12:31:34;;;;;;;1.20;1.10;;;17.20;99.90;;;;;;5050849;28;20510;-69
2023/07/26 12:34:04;;;;;;;0.88;0.85;;;17.50;99.90;;;;;;5043009;28;20057;-69
2023/07/26 12:36:47;;;;;;;3.80;1.30;;;17.60;99.90;;;;;;5047856;28;20106;-69
2023/07/26 12:39:14;;;;;;;1.33;1.23;;;17.70;99.90;;;;;;5047847;28;20092;-69
2023/07/26 12:41:42;;;;;;;1.13;0.80;;;17.60;99.90;;;;;;5047848;28;20053;-68
2023/07/26 12:44:08;;;;;;;1.50;1.00;;;17.50;99.90;;;;;;5048998;28;20152;-68
2023/07/26 12:46:36;;;;;;;3.03;0.77;;;17.60;99.90;;;;;;5026905;28;20040;-67
2023/07/26 12:49:02;;;;;;;0.80;0.80;;;17.80;99.90;;;;;;5047843;28;20048;-69
2023/07/26 12:51:28;;;;;;;1.10;0.95;;;17.90;99.20;;;;;;5049051;28;20049;-68